Time;durP1;ratioP1;P1;durP2;ratioP2;P2;SDS_P1;SDS_P2;PMS_P1;PMS_P2;Temp;Humidity;BMP_temperature;BMP_pressure;BME280_temperature;BME280_humidity;BME280_pressure;Samples;Min_cycle;Max_cycle;Signal;HPM_P1;HPM_P2
2022/11/22 00:00:31;;;;;;;0.83;0.83;;;;;;;7.88;100.00;99597.88;5014596;28;20206;-82
2022/11/22 00:02:58;;;;;;;0.60;0.60;;;;;;;7.76;100.00;99590.78;5050297;28;20219;-81
2022/11/22 00:05:24;;;;;;;0.50;0.50;;;;;;;7.85;100.00;99590.06;5049582;28;20198;-82
2022/11/22 00:07:51;;;;;;;0.50;0.50;;;;;;;7.83;100.00;99591.75;5050221;28;20207;-80
2022/11/22 00:10:20;;;;;;;0.50;0.50;;;;;;;7.85;100.00;99590.06;5049886;28;20606;-81
2022/11/22 00:12:46;;;;;;;0.50;0.50;;;;;;;7.89;100.00;99597.00;5050330;28;20199;-81
2022/11/22 00:15:13;;;;;;;0.90;0.90;;;;;;;7.92;100.00;99595.34;5050140;28;20210;-81
2022/11/22 00:17:40;;;;;;;0.50;0.50;;;;;;;7.88;100.00;99603.03;5013745;28;20584;-79
2022/11/22 00:20:10;;;;;;;3.93;0.97;;;;;;;7.91;100.00;99597.94;5049592;28;20203;-80
2022/11/22 00:22:38;;;;;;;0.53;0.53;;;;;;;7.93;100.00;99593.66;5049476;28;20680;-81
2022/11/22 00:25:05;;;;;;;0.60;0.60;;;;;;;7.97;100.00;99595.44;5049981;28;20195;-81
2022/11/22 00:27:33;;;;;;;0.50;0.50;;;;;;;7.94;100.00;99583.38;5014967;28;20229;-80
2022/11/22 00:30:00;;;;;;;0.60;0.60;;;;;;;7.94;100.00;99587.66;5049784;28;20203;-79
2022/11/22 00:32:27;;;;;;;1.00;1.00;;;;;;;7.93;100.00;99593.66;5049827;28;20219;-81
2022/11/22 00:34:54;;;;;;;0.50;0.50;;;;;;;7.89;100.00;99590.13;5049173;28;20220;-81
2022/11/22 00:37:20;;;;;;;0.77;0.77;;;;;;;7.94;100.00;99582.50;5048954;28;20203;-81
2022/11/22 00:39:47;;;;;;;0.40;0.40;;;;;;;7.88;100.00;99583.22;5014481;28;20206;-81
2022/11/22 00:42:14;;;;;;;0.57;0.57;;;;;;;7.88;100.00;99590.97;5014392;28;20203;-80
2022/11/22 00:44:42;;;;;;;0.60;0.60;;;;;;;7.73;100.00;99582.09;5048751;28;20192;-81
2022/11/22 00:47:09;;;;;;;0.50;0.50;;;;;;;7.82;100.00;99600.31;5049414;28;20188;-81
2022/11/22 00:49:36;;;;;;;0.50;0.50;;;;;;;7.71;100.00;99594.09;5049601;28;20211;-80
2022/11/22 00:52:02;;;;;;;0.60;0.60;;;;;;;7.51;100.00;99560.22;5048600;28;20202;-80
2022/11/22 00:54:29;;;;;;;0.60;0.60;;;;;;;7.71;100.00;99602.72;5049437;28;20211;-81
2022/11/22 00:56:56;;;;;;;0.80;0.80;;;;;;;7.61;100.00;99605.09;5050247;28;20207;-78
2022/11/22 00:59:23;;;;;;;0.60;0.60;;;;;;;7.63;100.00;99598.25;5013858;28;20196;-81
2022/11/22 01:01:51;;;;;;;0.57;0.57;;;;;;;7.40;100.00;99580.63;5048958;28;20242;-81
2022/11/22 01:04:18;;;;;;;0.70;0.70;;;;;;;7.53;100.00;99602.34;5047655;28;20227;-81
2022/11/22 01:06:44;;;;;;;0.60;0.60;;;;;;;7.43;100.00;99584.97;5048928;28;20211;-79
2022/11/22 01:09:17;;;;;;;0.50;0.50;;;;;;;7.58;100.00;99605.03;5049760;28;20199;-81
2022/11/22 01:11:44;;;;;;;0.50;0.50;;;;;;;7.42;100.00;99597.00;5048859;28;20211;-81
2022/11/22 01:14:11;;;;;;;0.63;0.63;;;;;;;7.43;100.00;99590.13;5048076;28;20216;-80
2022/11/22 01:16:38;;;;;;;2.73;2.53;;;;;;;7.31;100.00;99588.16;5048107;28;20206;-80
2022/11/22 01:19:06;;;;;;;0.60;0.60;;;;;;;7.43;100.00;99598.75;5049065;28;20200;-82
2022/11/22 01:21:33;;;;;;;0.60;0.60;;;;;;;7.42;100.00;99597.00;5048377;28;20200;-81
2022/11/22 01:24:00;;;;;;;0.50;0.50;;;;;;;7.42;100.00;99609.88;5048499;28;20218;-81
2022/11/22 01:26:27;;;;;;;0.60;0.60;;;;;;;7.16;100.00;99581.84;5049676;28;20195;-79
2022/11/22 01:28:54;;;;;;;0.60;0.60;;;;;;;7.34;100.00;99605.44;5048042;28;20203;-81
2022/11/22 01:31:21;;;;;;;0.60;0.60;;;;;;;7.27;100.00;99614.75;5048127;28;20219;-81
2022/11/22 01:33:47;;;;;;;1.00;1.00;;;;;;;7.29;100.00;99613.06;5048634;28;20234;-82
2022/11/22 01:36:16;;;;;;;0.60;0.60;;;;;;;7.29;100.00;99620.81;5048440;28;20219;-82
2022/11/22 01:38:42;;;;;;;0.60;0.60;;;;;;;7.09;100.00;99598.91;5048515;28;20211;-81
2022/11/22 01:41:09;;;;;;;0.90;0.90;;;;;;;7.23;100.00;99618.13;5047969;28;20212;-81
2022/11/22 01:43:36;;;;;;;0.60;0.60;;;;;;;7.17;100.00;99617.97;5048010;28;20214;-79
2022/11/22 01:46:07;;;;;;;0.60;0.60;;;;;;;6.90;100.00;99566.72;5049885;28;20199;-81
2022/11/22 01:48:45;;;;;;;0.70;0.70;;;;;;;7.08;100.00;99598.88;5048406;28;20652;-80
2022/11/22 01:51:20;;;;;;;1.50;1.07;;;;;;;7.12;100.00;99601.53;5047743;28;20215;-79
2022/11/22 01:53:48;;;;;;;0.50;0.50;;;;;;;7.05;100.00;99597.09;5048571;28;20230;-81
2022/11/22 01:56:17;;;;;;;0.60;0.60;;;;;;;6.82;100.00;99569.97;5048973;28;20207;-80
2022/11/22 01:58:47;;;;;;;0.50;0.50;;;;;;;6.86;100.00;99585.53;5012198;28;20199;-80
2022/11/22 02:01:14;;;;;;;0.50;0.50;;;;;;;6.67;100.00;99562.75;5047155;28;20650;-81
2022/11/22 02:03:46;;;;;;;0.50;0.50;;;;;;;6.98;100.00;99610.69;5047148;28;20223;-81
2022/11/22 02:06:14;;;;;;;0.60;0.60;;;;;;;6.72;100.00;99562.88;5047208;28;20211;-81
2022/11/22 02:08:52;;;;;;;1.07;0.97;;;;;;;6.98;100.00;99605.53;5047081;28;20866;-81
2022/11/22 02:11:21;;;;;;;0.57;0.57;;;;;;;6.80;100.00;99589.69;5046854;28;20261;-81
2022/11/22 02:13:51;;;;;;;0.50;0.50;;;;;;;6.74;100.00;99589.56;5047733;28;20215;-80
2022/11/22 02:16:19;;;;;;;0.70;0.70;;;;;;;6.84;100.00;99602.66;5047579;28;20204;-81
2022/11/22 02:18:45;;;;;;;0.60;0.60;;;;;;;6.86;100.00;99602.69;5047508;28;20207;-81
2022/11/22 02:21:12;;;;;;;0.70;0.70;;;;;;;6.76;100.00;99603.31;5046644;28;20199;-81
2022/11/22 02:23:50;;;;;;;0.70;0.70;;;;;;;6.75;100.00;99578.38;5012399;28;20219;-79
2022/11/22 02:26:19;;;;;;;0.60;0.60;;;;;;;6.72;100.00;99586.06;5047337;28;20227;-80
2022/11/22 02:28:46;;;;;;;0.60;0.60;;;;;;;6.61;100.00;99559.19;5047419;28;20206;-80
2022/11/22 02:31:35;;;;;;;0.63;0.63;;;;;;;6.88;100.00;99604.44;5047697;28;20249;-80
2022/11/22 02:34:02;;;;;;;2.73;1.17;;;;;;;6.82;100.00;99595.72;5047930;28;20707;-79
2022/11/22 02:36:33;;;;;;;0.50;0.50;;;;;;;6.84;100.00;99609.53;5047605;28;20928;-80
2022/11/22 02:39:00;;;;;;;0.57;0.57;;;;;;;6.78;100.00;99611.94;5047318;28;20192;-80
2022/11/22 02:41:28;;;;;;;0.60;0.60;;;;;;;6.82;100.00;99609.47;5047197;28;20207;-79
2022/11/22 02:43:55;;;;;;;0.60;0.60;;;;;;;6.81;100.00;99615.47;5047527;28;20257;-81
2022/11/22 02:46:22;;;;;;;0.73;0.73;;;;;;;6.87;100.00;99617.31;5051548;28;20230;-80
2022/11/22 02:48:49;;;;;;;0.60;0.60;;;;;;;6.78;100.00;99596.50;5030038;28;20298;-80
2022/11/22 02:51:18;;;;;;;0.60;0.60;;;;;;;6.57;100.00;99572.81;5049198;28;20203;-79
2022/11/22 02:53:46;;;;;;;0.50;0.50;;;;;;;6.85;100.00;99618.97;5046484;28;20211;-80
2022/11/22 02:56:13;;;;;;;0.70;0.70;;;;;;;6.87;100.00;99617.31;5047269;28;20207;-81
2022/11/22 02:58:41;;;;;;;0.93;0.93;;;;;;;6.83;100.00;99610.34;5046921;28;20203;-80
2022/11/22 03:01:08;;;;;;;0.60;0.60;;;;;;;6.89;100.00;99625.94;5046878;28;20211;-80
2022/11/22 03:03:35;;;;;;;0.60;0.60;;;;;;;6.86;100.00;99625.88;5046789;28;20238;-82
2022/11/22 03:06:02;;;;;;;0.63;0.63;;;;;;;6.78;100.00;99617.09;5046880;28;20203;-82
2022/11/22 03:08:29;;;;;;;0.40;0.40;;;;;;;6.73;100.00;99614.44;5046851;28;20285;-81
2022/11/22 03:10:57;;;;;;;0.53;0.53;;;;;;;6.67;100.00;99616.00;5046893;28;20203;-81
2022/11/22 03:13:23;;;;;;;2.67;1.03;;;;;;;6.66;100.00;99622.88;5047173;28;21598;-81
2022/11/22 03:15:52;;;;;;;0.57;0.57;;;;;;;6.69;100.00;99622.06;5029744;28;20223;-80
2022/11/22 03:18:18;;;;;;;0.90;0.90;;;;;;;6.68;100.00;99612.56;5048763;28;20199;-81
2022/11/22 03:20:45;;;;;;;0.57;0.57;;;;;;;6.63;100.00;99622.81;5053087;28;20195;-78
2022/11/22 03:23:12;;;;;;;0.93;0.93;;;;;;;6.57;100.00;99626.91;5062691;28;20206;-81
2022/11/22 03:25:39;;;;;;;0.70;0.70;;;;;;;6.52;100.00;99623.38;5027038;28;20258;-81
2022/11/22 03:28:06;;;;;;;0.60;0.60;;;;;;;6.42;100.00;99597.38;5064824;28;20214;-80
2022/11/22 03:30:33;;;;;;;0.60;0.60;;;;;;;6.56;100.00;99614.88;5065044;28;20199;-80
2022/11/22 03:33:01;;;;;;;0.50;0.50;;;;;;;6.57;100.00;99617.47;5029873;28;20204;-81
2022/11/22 03:35:28;;;;;;;0.53;0.53;;;;;;;6.36;100.00;99597.25;5036855;28;20235;-79
2022/11/22 03:37:55;;;;;;;1.03;1.03;;;;;;;6.53;100.00;99625.13;5051359;28;20210;-81
2022/11/22 03:40:21;;;;;;;2.13;2.03;;;;;;;6.54;100.00;99619.13;5052114;28;20199;-81
2022/11/22 03:42:48;;;;;;;0.70;0.70;;;;;;;6.56;100.00;99622.63;5051614;28;20249;-80
2022/11/22 03:45:15;;;;;;;0.50;0.50;;;;;;;6.45;100.00;99612.94;5054276;28;20199;-81
2022/11/22 03:47:42;;;;;;;0.40;0.40;;;;;;;6.55;100.00;99621.75;5051232;28;20214;-82
2022/11/22 03:50:10;;;;;;;0.60;0.60;;;;;;;6.46;100.00;99618.94;5049885;28;20206;-81
2022/11/22 03:52:37;;;;;;;0.57;0.57;;;;;;;6.53;100.00;99625.13;5049862;28;20195;-80
2022/11/22 03:55:04;;;;;;;0.60;0.60;;;;;;;6.52;100.00;99628.53;5051130;28;20281;-80
2022/11/22 03:57:31;;;;;;;1.17;1.17;;;;;;;6.53;100.00;99625.97;5051090;28;20199;-81
2022/11/22 03:59:57;;;;;;;0.60;0.60;;;;;;;6.46;100.00;99630.09;5014831;28;20211;-78
2022/11/22 04:02:24;;;;;;;0.60;0.60;;;;;;;7.04;100.00;99595.34;5049539;28;20455;-82
2022/11/22 04:04:51;;;;;;;0.50;0.50;;;;;;;6.98;100.00;99619.31;5014693;28;20512;-76
2022/11/22 04:07:19;;;;;;;0.70;0.70;;;;;;;6.76;100.00;99641.97;5051121;28;20613;-83
2022/11/22 04:09:46;;;;;;;0.40;0.40;;;;;;;6.73;100.00;99639.31;5049006;28;20447;-82
2022/11/22 04:12:12;;;;;;;0.60;0.60;;;;;;;6.61;100.00;99639.03;5049489;28;20451;-80
2022/11/22 04:22:57;;;;;;;0.90;0.90;;;;;;;6.74;100.00;99641.06;5049409;28;20230;-79
2022/11/22 04:25:23;;;;;;;0.50;0.50;;;;;;;6.52;100.00;99643.97;5051307;28;20626;-79
2022/11/22 04:27:49;;;;;;;0.43;0.43;;;;;;;6.40;100.00;99644.53;5049941;28;20203;-78
2022/11/22 04:30:16;;;;;;;1.07;1.07;;;;;;;6.32;100.00;99626.34;5050453;28;20230;-76
2022/11/22 04:32:45;;;;;;;0.97;0.97;;;;;;;6.37;100.00;99652.19;5013706;28;20550;-77
2022/11/22 04:35:12;;;;;;;0.60;0.60;;;;;;;6.22;100.00;99633.78;5049910;28;20215;-77
2022/11/22 04:37:39;;;;;;;0.50;0.50;;;;;;;6.33;100.00;99658.97;5049441;28;20199;-78
2022/11/22 04:40:08;;;;;;;0.53;0.53;;;;;;;6.38;100.00;99651.38;5049477;28;20203;-77
2022/11/22 04:45:19;;;;;;;0.50;0.50;;;;;;;6.30;100.00;99652.88;5051604;28;20206;-79
2022/11/22 04:48:00;;;;;;;0.50;0.50;;;;;;;6.44;100.00;99647.25;5049758;28;20585;-78
2022/11/22 04:53:13;;;;;;;0.50;0.50;;;;;;;6.27;100.00;99635.66;5048744;28;20209;-78
2022/11/22 04:55:42;;;;;;;0.60;0.60;;;;;;;6.40;100.00;99653.16;5049436;28;20594;-78
2022/11/22 04:58:08;;;;;;;0.50;0.50;;;;;;;6.33;100.00;99663.25;5049356;28;20191;-79
2022/11/22 05:00:35;;;;;;;0.50;0.50;;;;;;;6.26;100.00;99669.94;5048917;28;20754;-78
2022/11/22 05:03:03;;;;;;;0.70;0.70;;;;;;;6.25;100.00;99652.75;5049175;28;20234;-78
2022/11/22 05:05:30;;;;;;;0.50;0.50;;;;;;;6.31;100.00;99681.22;5049186;28;21652;-77
2022/11/22 05:07:58;;;;;;;0.60;0.60;;;;;;;6.43;100.00;99696.09;5048655;28;20191;-77
2022/11/22 05:10:25;;;;;;;0.60;0.60;;;;;;;6.33;100.00;99701.88;5047613;28;20269;-78
2022/11/22 05:12:54;;;;;;;0.50;0.50;;;;;;;6.32;100.00;99697.53;5051238;28;20206;-77
2022/11/22 05:15:20;;;;;;;0.47;0.47;;;;;;;6.26;100.00;99703.41;5049308;28;20227;-77
2022/11/22 05:17:47;;;;;;;0.83;0.83;;;;;;;6.18;100.00;99709.19;5017247;28;20262;-79
2022/11/22 05:20:14;;;;;;;0.70;0.70;;;;;;;6.32;100.00;99723.28;5013857;28;20207;-76
2022/11/22 05:25:25;;;;;;;0.50;0.50;;;;;;;6.28;100.00;99724.91;5056894;28;20207;-78
2022/11/22 05:27:54;;;;;;;1.73;1.63;;;;;;;6.26;100.00;99734.31;5051053;28;20199;-77
2022/11/22 05:30:22;;;;;;;0.60;0.60;;;;;;;6.15;100.00;99722.84;5052607;28;21000;-82
2022/11/22 05:32:48;;;;;;;0.60;0.60;;;;;;;6.29;100.00;99739.53;5043143;28;20735;-78
2022/11/22 05:35:15;;;;;;;0.50;0.50;;;;;;;6.21;100.00;99711.84;5010508;28;20959;-78
2022/11/22 05:37:42;;;;;;;0.50;0.50;;;;;;;6.26;100.00;99724.00;5046235;28;20192;-79
2022/11/22 05:40:10;;;;;;;0.50;0.50;;;;;;;6.32;100.00;99736.16;5047167;28;20595;-79
2022/11/22 05:42:37;;;;;;;0.60;0.60;;;;;;;6.28;100.00;99735.19;4995704;28;20214;-78
2022/11/22 05:45:06;;;;;;;0.50;0.50;;;;;;;6.38;100.00;99739.78;5048130;28;20192;-79
2022/11/22 05:47:35;;;;;;;0.60;0.60;;;;;;;6.24;100.00;99720.50;5012453;28;20200;-78
2022/11/22 05:50:02;;;;;;;0.70;0.70;;;;;;;6.35;100.00;99749.13;5048293;28;20619;-78
2022/11/22 05:52:29;;;;;;;0.60;0.60;;;;;;;6.38;100.00;99749.22;5047969;28;20200;-79
2022/11/22 05:54:55;;;;;;;0.53;0.53;;;;;;;6.38;100.00;99744.94;5048289;28;20234;-79
2022/11/22 05:57:22;;;;;;;0.43;0.43;;;;;;;6.40;100.00;99752.69;5047242;28;20211;-79
2022/11/22 05:59:49;;;;;;;0.70;0.70;;;;;;;5.91;100.00;99668.16;5048275;28;20196;-77
2022/11/22 06:02:17;;;;;;;0.50;0.50;;;;;;;6.37;100.00;99761.22;5047671;28;20929;-79
2022/11/22 06:04:44;;;;;;;0.50;0.50;;;;;;;5.98;100.00;99706.09;5047268;28;20212;-79
2022/11/22 06:07:11;;;;;;;0.50;0.50;;;;;;;6.33;100.00;99767.09;5047923;28;20191;-80
2022/11/22 06:09:38;;;;;;;0.50;0.50;;;;;;;6.36;100.00;99766.31;5044280;28;20218;-77
2022/11/22 06:12:05;;;;;;;0.50;0.50;;;;;;;6.87;100.00;99710.97;5046790;28;20219;-78
2022/11/22 06:14:32;;;;;;;0.70;0.70;;;;;;;6.55;100.00;99716.16;5047431;28;20234;-79
2022/11/22 06:16:58;;;;;;;0.60;0.60;;;;;;;6.49;100.00;99753.78;5047553;28;20210;-79
2022/11/22 06:19:27;;;;;;;0.60;0.60;;;;;;;6.69;100.00;99777.50;5047219;28;20290;-75
2022/11/22 06:21:53;;;;;;;0.60;0.60;;;;;;;6.59;100.00;99790.09;5048691;28;20637;-75
2022/11/22 06:24:20;;;;;;;0.60;0.60;;;;;;;6.57;100.00;99796.88;5043639;28;20219;-78
2022/11/22 06:26:47;;;;;;;0.60;0.60;;;;;;;6.62;100.00;99790.16;5048750;28;20215;-76
2022/11/22 06:29:14;;;;;;;0.50;0.50;;;;;;;6.65;100.00;99790.25;5050599;28;20203;-76
2022/11/22 06:31:41;;;;;;;0.60;0.60;;;;;;;6.27;100.00;99746.34;5050205;28;20199;-77
2022/11/22 06:34:07;;;;;;;0.97;0.97;;;;;;;6.66;100.00;99792.88;5051296;28;20214;-76
2022/11/22 06:36:38;;;;;;;0.60;0.60;;;;;;;6.69;100.00;99792.06;5051044;28;20227;-78
2022/11/22 06:39:05;;;;;;;0.70;0.70;;;;;;;6.73;100.00;99794.78;5016238;28;20200;-76
2022/11/22 06:41:35;;;;;;;1.40;1.37;;;;;;;6.74;100.00;99759.59;5051886;28;20206;-77
2022/11/22 06:44:05;;;;;;;0.80;0.80;;;;;;;6.46;100.00;99702.22;5039848;28;20199;-79
2022/11/22 06:46:32;;;;;;;0.70;0.70;;;;;;;7.01;100.00;99760.25;5044774;28;20218;-77
2022/11/22 06:48:59;;;;;;;0.70;0.70;;;;;;;7.22;100.00;99802.00;5050692;28;20200;-76
2022/11/22 06:51:27;;;;;;;1.00;1.00;;;;;;;7.06;100.00;99768.97;5038960;28;20702;-77
2022/11/22 06:53:57;;;;;;;0.60;0.60;;;;;;;7.30;100.00;99804.75;5049066;28;20212;-76
2022/11/22 06:56:25;;;;;;;0.50;0.50;;;;;;;7.31;100.00;99807.34;5051020;28;20231;-77
2022/11/22 06:58:53;;;;;;;0.60;0.60;;;;;;;7.41;100.00;99826.50;5050808;28;20211;-77
2022/11/22 07:01:22;;;;;;;0.80;0.80;;;;;;;6.92;100.00;99726.53;5050621;28;20596;-78
2022/11/22 07:03:49;;;;;;;0.50;0.50;;;;;;;7.54;100.00;99813.06;5051255;28;20325;-77
2022/11/22 07:06:18;;;;;;;0.50;0.50;;;;;;;7.77;100.00;99832.50;5016497;28;20687;-77
2022/11/22 07:08:45;;;;;;;0.60;0.60;;;;;;;7.82;100.00;99842.91;5049986;28;20211;-78
2022/11/22 07:11:16;;;;;;;0.70;0.70;;;;;;;7.72;100.00;99810.00;5034032;28;20208;-77
2022/11/22 07:13:43;;;;;;;1.23;1.23;;;;;;;7.87;100.00;99836.16;4999223;28;20207;-78
2022/11/22 07:16:12;;;;;;;0.93;0.93;;;;;;;7.77;100.00;99801.53;5050940;28;20703;-79
2022/11/22 07:18:39;;;;;;;0.60;0.60;;;;;;;7.46;100.00;99765.56;5040191;28;20244;-79
2022/11/22 07:21:07;;;;;;;0.40;0.40;;;;;;;7.98;100.00;99850.16;5047483;28;20200;-80
2022/11/22 07:23:34;;;;;;;0.57;0.57;;;;;;;7.79;100.00;99837.69;5051163;28;20212;-79
2022/11/22 07:26:01;;;;;;;0.40;0.40;;;;;;;7.77;100.00;99840.25;5050496;28;20214;-80
2022/11/22 07:28:29;;;;;;;0.70;0.70;;;;;;;7.94;100.00;99853.50;5015318;28;20203;-79
2022/11/22 07:31:00;;;;;;;0.50;0.50;;;;;;;8.05;100.00;99852.03;5050238;28;20199;-78
2022/11/22 07:33:27;;;;;;;3.03;2.83;;;;;;;7.95;100.00;99850.09;5050494;28;20283;-79
2022/11/22 07:35:54;;;;;;;2.30;1.33;;;;;;;7.90;100.00;99823.31;5050759;28;20223;-79
2022/11/22 07:38:20;;;;;;;0.60;0.60;;;;;;;8.22;100.00;99858.41;5050370;28;20683;-79
2022/11/22 07:40:47;;;;;;;0.60;0.60;;;;;;;8.28;100.00;99847.31;5039214;28;20227;-79
2022/11/22 07:43:15;;;;;;;1.17;1.17;;;;;;;8.34;100.00;99835.47;5048082;28;20290;-79
2022/11/22 07:45:43;;;;;;;0.50;0.50;;;;;;;8.52;100.00;99837.53;5015170;28;20256;-78
2022/11/22 07:48:13;;;;;;;0.60;0.60;;;;;;;8.39;100.00;99827.78;5050432;28;20203;-78
2022/11/22 07:50:40;;;;;;;0.60;0.60;;;;;;;8.40;100.00;99825.25;5032340;28;20310;-79
2022/11/22 07:53:07;;;;;;;1.43;1.30;;;;;;;8.39;100.00;99820.91;5031536;28;20199;-77
2022/11/22 07:55:34;;;;;;;1.73;1.63;;;;;;;8.52;100.00;99834.94;5050243;28;20224;-79
2022/11/22 07:58:01;;;;;;;0.73;0.73;;;;;;;8.51;100.00;99832.31;5031616;28;20205;-77
2022/11/22 08:00:29;;;;;;;0.70;0.70;;;;;;;8.40;100.00;99807.16;5050740;28;20227;-77
2022/11/22 08:02:58;;;;;;;0.60;0.60;;;;;;;8.46;100.00;99830.53;5050282;28;20236;-77
2022/11/22 08:05:24;;;;;;;0.60;0.60;;;;;;;8.48;100.00;99827.09;5049435;28;20235;-78
2022/11/22 08:07:53;;;;;;;0.50;0.50;;;;;;;8.57;100.00;99827.25;5051627;28;20230;-79
2022/11/22 08:10:20;;;;;;;0.60;0.60;;;;;;;8.44;100.00;99815.84;5054231;28;20203;-78
2022/11/22 08:12:47;;;;;;;0.60;0.60;;;;;;;8.66;100.00;99827.44;5035269;28;20199;-77
2022/11/22 08:15:15;;;;;;;0.60;0.60;;;;;;;8.71;100.00;99812.88;5034713;28;20231;-77
2022/11/22 08:17:42;;;;;;;0.80;0.80;;;;;;;8.60;100.00;99796.31;5053530;28;20207;-78
2022/11/22 08:20:11;;;;;;;0.57;0.57;;;;;;;8.78;100.00;99823.34;5053612;28;20231;-78
2022/11/22 08:22:39;;;;;;;0.60;0.60;;;;;;;8.83;100.00;99818.28;5053504;28;20691;-77
2022/11/22 08:25:11;;;;;;;0.60;0.60;;;;;;;8.74;100.00;99810.38;5053503;28;20200;-77
2022/11/22 08:27:39;;;;;;;0.60;0.60;;;;;;;8.72;100.00;99796.53;5053137;28;20261;-77
2022/11/22 08:30:06;;;;;;;0.60;0.60;;;;;;;8.96;100.00;99821.09;5053008;28;20707;-78
2022/11/22 08:32:33;;;;;;;1.20;1.20;;;;;;;9.07;100.00;99820.41;5053100;28;20207;-77
2022/11/22 08:35:00;;;;;;;0.50;0.50;;;;;;;9.02;100.00;99817.78;5052757;28;20250;-78
2022/11/22 08:37:28;;;;;;;0.60;0.60;;;;;;;9.42;100.00;99799.41;5054501;28;20742;-79
2022/11/22 08:39:55;;;;;;;1.00;1.00;;;;;;;9.40;100.00;99801.13;5054359;28;20203;-77
2022/11/22 08:42:22;;;;;;;0.73;0.73;;;;;;;9.41;100.00;99807.19;5053567;28;20195;-78
2022/11/22 08:44:49;;;;;;;0.73;0.73;;;;;;;9.43;100.00;99806.34;5054119;28;20201;-77
2022/11/22 08:47:15;;;;;;;0.60;0.60;;;;;;;9.44;100.00;99808.09;5052973;28;20210;-78
2022/11/22 08:49:42;;;;;;;0.50;0.50;;;;;;;9.53;100.00;99803.88;5052774;28;20196;-77
2022/11/22 08:52:09;;;;;;;0.60;0.60;;;;;;;9.56;100.00;99806.53;5053008;28;20203;-77
2022/11/22 08:54:37;;;;;;;0.60;0.60;;;;;;;9.66;100.00;99816.16;5052881;28;20195;-77
2022/11/22 08:57:04;;;;;;;0.60;0.60;;;;;;;9.64;100.00;99808.38;5053101;28;20788;-78
2022/11/22 08:59:31;;;;;;;0.60;0.60;;;;;;;9.70;100.00;99811.03;5053592;28;20199;-77
2022/11/22 09:01:57;;;;;;;0.60;0.60;;;;;;;9.71;100.00;99792.06;5052672;28;20278;-76
2022/11/22 09:04:24;;;;;;;0.60;0.60;;;;;;;9.87;100.00;99811.28;5052452;28;20209;-77
2022/11/22 09:06:51;;;;;;;0.60;0.60;;;;;;;9.74;100.00;99799.88;5052816;28;20214;-77
2022/11/22 09:09:18;;;;;;;0.93;0.93;;;;;;;9.89;100.00;99801.81;5052535;28;20216;-77
2022/11/22 09:11:46;;;;;;;0.50;0.50;;;;;;;9.82;100.00;99779.28;5052476;28;20195;-77
2022/11/22 09:14:13;;;;;;;0.60;0.60;;;;;;;9.84;100.00;99793.13;5053167;28;20586;-77
2022/11/22 09:16:39;;;;;;;0.57;0.57;;;;;;;10.00;100.00;99820.94;5034305;28;20246;-77
2022/11/22 09:19:06;;;;;;;0.60;0.60;;;;;;;10.03;100.00;99822.69;5052302;28;20567;-77
2022/11/22 09:21:33;;;;;;;0.60;0.60;;;;;;;9.98;100.00;99809.72;5052668;28;20199;-77
2022/11/22 09:24:00;;;;;;;1.00;1.00;;;;;;;10.16;100.00;99820.34;5052044;28;20199;-77
2022/11/22 09:26:26;;;;;;;0.50;0.50;;;;;;;10.27;100.00;99821.31;5052260;28;20334;-77
2022/11/22 09:28:56;;;;;;;0.70;0.70;;;;;;;10.36;100.00;99818.84;5052343;28;20199;-77
2022/11/22 09:31:24;;;;;;;0.70;0.70;;;;;;;10.40;98.52;99807.66;5049599;28;20191;-78
2022/11/22 09:33:51;;;;;;;0.40;0.40;;;;;;;10.43;98.68;99805.09;5052346;28;20204;-78
2022/11/22 09:36:20;;;;;;;0.50;0.50;;;;;;;10.38;98.31;99780.84;5051831;28;20227;-78
2022/11/22 09:38:47;;;;;;;0.50;0.50;;;;;;;10.50;98.73;99784.41;5033626;28;20203;-79
2022/11/22 09:41:26;;;;;;;0.50;0.50;;;;;;;10.58;98.51;99777.59;5037628;28;20196;-79
2022/11/22 09:44:05;;;;;;;0.60;0.60;;;;;;;10.60;96.47;99771.56;5051335;28;20273;-78
2022/11/22 09:46:41;;;;;;;0.50;0.50;;;;;;;10.34;95.24;99760.97;5051929;28;20226;-79
2022/11/22 09:49:25;;;;;;;0.70;0.70;;;;;;;10.50;100.00;99766.28;5051633;28;20699;-78
2022/11/22 09:51:58;;;;;;;0.60;0.60;;;;;;;10.43;100.00;99758.44;5051521;28;20265;-78
2022/11/22 09:54:28;;;;;;;0.67;0.67;;;;;;;10.45;100.00;99753.31;5037552;28;20216;-78
2022/11/22 09:57:02;;;;;;;0.60;0.60;;;;;;;10.60;100.00;99757.72;5052095;28;20273;-79
2022/11/22 09:59:35;;;;;;;0.60;0.60;;;;;;;10.63;100.00;99750.84;5051072;28;20246;-79
2022/11/22 10:02:07;;;;;;;0.63;0.63;;;;;;;10.41;100.00;99747.22;5032765;28;20233;-78
2022/11/22 10:04:38;;;;;;;0.60;0.60;;;;;;;10.54;99.54;99748.19;5049900;28;20211;-79
2022/11/22 10:07:11;;;;;;;0.50;0.50;;;;;;;10.62;100.00;99743.09;5039513;28;20253;-78
2022/11/22 10:09:47;;;;;;;0.50;0.50;;;;;;;10.67;99.34;99729.28;5051145;28;20222;-78
2022/11/22 10:12:19;;;;;;;0.60;0.60;;;;;;;10.59;96.36;99719.72;5050996;28;20222;-79
2022/11/22 10:14:53;;;;;;;0.50;0.50;;;;;;;10.85;93.62;99738.94;5050900;28;20211;-77
2022/11/22 10:17:38;;;;;;;0.60;0.60;;;;;;;10.99;94.18;99745.13;5050893;28;20706;-76
2022/11/22 10:20:12;;;;;;;0.50;0.50;;;;;;;11.03;92.64;99746.88;5037003;28;20195;-78
2022/11/22 10:22:39;;;;;;;0.50;0.50;;;;;;;10.91;91.19;99726.06;5051026;28;20210;-78
2022/11/22 10:25:17;;;;;;;1.70;1.03;;;;;;;11.15;90.25;99738.31;5051103;28;20256;-78
2022/11/22 10:27:47;;;;;;;0.67;0.67;;;;;;;11.17;89.17;99731.41;5051260;28;20236;-79
2022/11/22 10:30:19;;;;;;;0.50;0.50;;;;;;;10.80;89.01;99652.50;5050481;28;20204;-78
2022/11/22 10:32:57;;;;;;;0.60;0.60;;;;;;;11.21;89.42;99715.88;5051089;28;20282;-78
2022/11/22 10:35:36;;;;;;;0.50;0.50;;;;;;;11.12;90.30;99710.66;5050543;28;20274;-74
2022/11/22 10:38:26;;;;;;;0.50;0.50;;;;;;;11.02;90.56;99695.00;5050307;28;20207;-76
2022/11/22 10:41:03;;;;;;;0.60;0.60;;;;;;;10.57;92.26;99613.41;5050160;28;20202;-76
2022/11/22 10:43:39;;;;;;;0.50;0.50;;;;;;;10.85;91.44;99656.84;5050896;28;20213;-77
2022/11/22 10:46:16;;;;;;;0.50;0.50;;;;;;;11.09;93.05;99692.47;5050570;28;20249;-75
2022/11/22 10:48:51;;;;;;;0.70;0.70;;;;;;;11.18;89.91;99696.81;5050744;28;20203;-76
2022/11/22 10:51:26;;;;;;;0.50;0.50;;;;;;;11.28;90.14;99689.09;5037532;28;20203;-76
2022/11/22 10:54:03;;;;;;;0.60;0.60;;;;;;;11.39;88.83;99687.44;5050136;28;20203;-76
2022/11/22 10:56:35;;;;;;;0.50;0.50;;;;;;;11.45;88.42;99687.47;5050096;28;20624;-76
2022/11/22 10:59:24;;;;;;;0.50;0.50;;;;;;;11.54;85.44;99675.41;5050489;28;20211;-76
2022/11/22 11:02:00;;;;;;;0.50;0.50;;;;;;;11.56;84.64;99676.28;4988678;28;20197;-75
2022/11/22 11:04:31;;;;;;;0.70;0.70;;;;;;;11.44;83.33;99658.91;4957290;28;20201;-75
2022/11/22 11:07:01;;;;;;;0.50;0.50;;;;;;;11.58;81.23;99661.56;4955858;28;20190;-75
2022/11/22 11:09:35;;;;;;;0.50;0.50;;;;;;;11.62;82.15;99665.91;4988633;28;20201;-75
2022/11/22 11:12:07;;;;;;;0.50;0.50;;;;;;;11.36;81.38;99588.81;4988694;28;20201;-75
2022/11/22 11:14:38;;;;;;;0.60;0.60;;;;;;;11.78;79.18;99649.56;4988630;28;20209;-75
2022/11/22 11:17:07;;;;;;;0.60;0.60;;;;;;;11.97;79.30;99660.88;4988656;28;20221;-75
2022/11/22 11:19:38;;;;;;;0.50;0.50;;;;;;;11.83;78.85;99642.66;4988520;28;20748;-75
2022/11/22 11:22:16;;;;;;;2.47;1.33;;;;;;;11.92;78.32;99647.84;4988639;28;20288;-76
2022/11/22 11:24:43;;;;;;;0.50;0.50;;;;;;;11.95;77.98;99647.03;4988635;28;20287;-74
2022/11/22 11:27:12;;;;;;;0.50;0.50;;;;;;;12.18;77.26;99641.00;4989011;28;20702;-76
2022/11/22 11:29:43;;;;;;;0.52;0.52;;;;;;;12.26;77.59;99617.63;4988814;28;20201;-76
2022/11/22 11:32:14;;;;;;;0.70;0.70;;;;;;;12.10;76.83;99610.66;4988697;28;20201;-75
2022/11/22 11:34:47;;;;;;;0.57;0.57;;;;;;;12.12;78.34;99641.00;4988623;28;20197;-77
2022/11/22 11:37:25;;;;;;;0.60;0.60;;;;;;;12.04;80.90;99640.09;4988755;28;20225;-77
2022/11/22 11:39:52;;;;;;;0.60;0.60;;;;;;;12.02;81.62;99641.81;5037653;28;20203;-77
2022/11/22 11:42:30;;;;;;;0.73;0.73;;;;;;;12.01;82.82;99642.69;5015506;28;20211;-76
2022/11/22 11:45:26;;;;;;;0.50;0.50;;;;;;;11.98;84.73;99631.44;5054194;28;20199;-77
2022/11/22 11:47:55;;;;;;;0.60;0.60;;;;;;;12.14;84.02;99628.84;5054632;28;20227;-77
2022/11/22 11:50:24;;;;;;;0.60;0.60;;;;;;;12.23;84.43;99636.69;5054337;28;20227;-77
2022/11/22 11:52:53;;;;;;;0.60;0.60;;;;;;;12.21;85.07;99625.41;5035157;28;20210;-77
2022/11/22 11:55:21;;;;;;;0.50;0.50;;;;;;;12.16;83.26;99595.09;5054075;28;20203;-76
2022/11/22 11:57:49;;;;;;;0.60;0.60;;;;;;;12.34;83.17;99621.94;5053774;28;20231;-76